Time;durP1;ratioP1;P1;durP2;ratioP2;P2;SDS_P1;SDS_P2;PMS_P1;PMS_P2;Temp;Humidity;BMP_temperature;BMP_pressure;BME280_temperature;BME280_humidity;BME280_pressure;Samples;Min_cycle;Max_cycle;Signal;HPM_P1;HPM_P2
2023/03/19 00:00:08;;;;;;;;;;;;;;;0.41;68.37;95730.44;5113612;28;988;-59
2023/03/19 00:02:35;;;;;;;;;;;;;;;0.17;68.74;95727.34;5113809;28;1003;-59
2023/03/19 00:05:02;;;;;;;;;;;;;;;-0.20;69.94;95724.94;5113413;28;1116;-59
2023/03/19 00:07:28;;;;;;;;;;;;;;;-0.30;70.60;95730.78;5113168;28;1913;-59
2023/03/19 00:09:54;;;;;;;;;;;;;;;0.00;70.26;95725.66;5113261;28;1064;-59
2023/03/19 00:12:20;;;;;;;;;;;;;;;0.31;69.27;95726.63;5113593;28;1023;-59
2023/03/19 00:14:46;;;;;;;;;;;;;;;0.04;69.14;95721.94;5113519;28;1035;-59
2023/03/19 00:17:12;;;;;;;;;;;;;;;-0.15;70.09;95714.19;5112073;28;1076;-59
2023/03/19 00:19:38;;;;;;;;;;;;;;;-0.09;70.01;95718.28;5112378;28;1069;-59
2023/03/19 00:22:04;;;;;;;;;;;;;;;-0.13;70.04;95714.09;5113279;28;1010;-59
2023/03/19 00:24:30;;;;;;;;;;;;;;;-0.20;70.57;95708.31;5113118;28;1025;-59
2023/03/19 00:26:56;;;;;;;;;;;;;;;0.03;69.96;95711.50;5113445;28;1918;-59
2023/03/19 00:29:22;;;;;;;;;;;;;;;0.17;69.15;95707.19;5113454;28;1004;-59
2023/03/19 00:31:49;;;;;;;;;;;;;;;0.26;69.33;95713.69;5113140;28;1104;-59
2023/03/19 00:34:17;;;;;;;;;;;;;;;0.29;68.91;95707.44;5113121;28;1665;-58
2023/03/19 00:36:44;;;;;;;;;;;;;;;0.24;69.00;95702.41;5113149;28;1226;-59
2023/03/19 00:39:10;;;;;;;;;;;;;;;-0.07;68.99;95703.25;5112947;28;1095;-59
2023/03/19 00:41:36;;;;;;;;;;;;;;;-0.35;70.09;95703.88;5113331;28;999;-59
2023/03/19 00:44:03;;;;;;;;;;;;;;;-0.22;70.62;95703.13;5113234;28;1012;-59
2023/03/19 00:46:29;;;;;;;;;;;;;;;-0.50;70.48;95708.16;5112941;28;1030;-59
2023/03/19 00:48:57;;;;;;;;;;;;;;;-0.64;71.38;95706.25;5112960;28;1980;-59
2023/03/19 00:51:23;;;;;;;;;;;;;;;-0.52;71.16;95696.91;5114265;28;1053;-59
2023/03/19 00:53:50;;;;;;;;;;;;;;;-0.29;70.37;95703.56;5116640;28;1061;-59
2023/03/19 00:56:17;;;;;;;;;;;;;;;-0.22;70.49;95700.50;5116699;28;1035;-59
2023/03/19 00:58:43;;;;;;;;;;;;;;;-0.05;70.39;95714.53;5116789;28;953;-59
2023/03/19 01:01:11;;;;;;;;;;;;;;;-0.23;69.80;95714.59;5116867;28;1008;-59
2023/03/19 01:03:37;;;;;;;;;;;;;;;-0.31;70.31;95711.50;5116761;28;1051;-59
2023/03/19 01:06:03;;;;;;;;;;;;;;;-0.36;69.60;95708.31;5116433;28;956;-59
2023/03/19 01:08:30;;;;;;;;;;;;;;;-0.48;70.74;95707.16;5116471;28;1909;-59
2023/03/19 01:10:56;;;;;;;;;;;;;;;-0.37;70.58;95711.00;5116553;28;1005;-59
2023/03/19 01:13:22;;;;;;;;;;;;;;;-0.42;69.92;95709.47;5116216;28;1107;-59
2023/03/19 01:15:50;;;;;;;;;;;;;;;-0.60;70.68;95715.69;5116363;28;1059;-59
2023/03/19 01:18:16;;;;;;;;;;;;;;;-0.62;70.43;95709.66;5116100;27;1052;-59
2023/03/19 01:20:42;;;;;;;;;;;;;;;-0.55;71.02;95707.53;5115022;28;1043;-59
2023/03/19 01:23:09;;;;;;;;;;;;;;;-0.43;70.79;95704.28;5116105;28;1575;-59
2023/03/19 01:25:35;;;;;;;;;;;;;;;-0.56;70.42;95698.81;5116081;28;1024;-59
2023/03/19 01:28:01;;;;;;;;;;;;;;;-0.81;71.58;95709.75;5116035;28;1909;-59
2023/03/19 01:30:27;;;;;;;;;;;;;;;-0.82;71.73;95711.50;5115689;28;1100;-59
2023/03/19 01:32:53;;;;;;;;;;;;;;;-0.64;72.01;95696.59;5114701;28;1202;-59
2023/03/19 01:35:19;;;;;;;;;;;;;;;-0.44;70.92;95703.44;5106466;28;1267;-59
2023/03/19 01:37:45;;;;;;;;;;;;;;;-0.25;70.49;95705.09;5095324;28;1063;-59
2023/03/19 01:40:12;;;;;;;;;;;;;;;-0.16;70.57;95703.75;5095207;28;1037;-59
2023/03/19 01:42:52;;;;;;;;;;;;;;;-0.31;70.12;95701.00;5095324;28;1041;-59
2023/03/19 01:45:27;;;;;;;;;;;;;;;-0.64;70.79;95704.47;5095285;28;1052;-59
2023/03/19 01:47:53;;;;;;;;;;;;;;;-0.73;71.63;95710.22;5095150;28;1989;-59
2023/03/19 01:50:23;;;;;;;;;;;;;;;-0.79;71.29;95700.03;5095437;28;992;-59
2023/03/19 01:52:49;;;;;;;;;;;;;;;-0.79;71.26;95695.59;5095377;28;957;-59
2023/03/19 01:55:15;;;;;;;;;;;;;;;-0.71;71.47;95694.38;5095209;28;1043;-59
2023/03/19 01:57:41;;;;;;;;;;;;;;;-0.67;71.47;95683.63;5095110;28;957;-59
2023/03/19 02:00:08;;;;;;;;;;;;;;;-0.92;71.46;95694.53;5094131;28;1007;-59
2023/03/19 02:02:35;;;;;;;;;;;;;;;-1.18;72.04;95687.97;5094766;28;1096;-59
2023/03/19 02:05:05;;;;;;;;;;;;;;;-1.27;72.55;95688.44;5095157;28;1047;-59
2023/03/19 02:07:33;;;;;;;;;;;;;;;-1.06;72.49;95687.38;5094861;28;1902;-59
2023/03/19 02:10:00;;;;;;;;;;;;;;;-0.76;71.51;95683.25;5093809;28;1031;-59
2023/03/19 02:12:27;;;;;;;;;;;;;;;-0.65;71.32;95678.28;5094636;28;1123;-59
2023/03/19 02:14:53;;;;;;;;;;;;;;;-0.68;71.00;95683.72;5094936;28;968;-59
2023/03/19 02:17:20;;;;;;;;;;;;;;;-0.70;70.87;95680.31;5094789;28;972;-59
2023/03/19 02:19:49;;;;;;;;;;;;;;;-0.89;71.12;95688.28;5094565;28;1092;-59
2023/03/19 02:22:18;;;;;;;;;;;;;;;-1.29;72.17;95685.03;5093414;28;961;-59
2023/03/19 02:24:50;;;;;;;;;;;;;;;-1.31;72.85;95694.75;5094474;28;1027;-59
2023/03/19 02:27:16;;;;;;;;;;;;;;;-1.39;72.58;95698.59;5094666;28;1910;-59
2023/03/19 02:29:42;;;;;;;;;;;;;;;-1.48;73.23;95692.97;5094286;28;1088;-59
2023/03/19 02:32:09;;;;;;;;;;;;;;;-1.58;73.92;95696.03;5094667;28;1011;-59
2023/03/19 02:34:37;;;;;;;;;;;;;;;-1.28;73.41;95700.72;5097071;28;1765;-59
2023/03/19 02:37:06;;;;;;;;;;;;;;;-1.11;72.42;95704.28;5114585;28;1068;-59
2023/03/19 02:39:53;;;;;;;;;;;;;;;-1.01;72.18;95703.72;5114547;28;1043;-59
2023/03/19 02:42:20;;;;;;;;;;;;;;;-0.87;72.35;95707.44;5114327;28;1240;-59
2023/03/19 02:44:46;;;;;;;;;;;;;;;-0.73;71.89;95709.38;5114670;28;1250;-59
2023/03/19 02:47:13;;;;;;;;;;;;;;;-0.64;71.18;95714.16;5114520;28;1992;-59
2023/03/19 02:49:38;;;;;;;;;;;;;;;-0.98;71.63;95715.88;5114513;28;953;-59
2023/03/19 02:52:05;;;;;;;;;;;;;;;-1.01;72.31;95726.50;5114375;28;1080;-59
2023/03/19 02:54:31;;;;;;;;;;;;;;;-0.90;72.21;95724.19;5114083;28;1067;-59
2023/03/19 02:56:57;;;;;;;;;;;;;;;-0.93;71.72;95718.25;5113392;28;1008;-59
2023/03/19 02:59:23;;;;;;;;;;;;;;;-0.96;72.04;95721.88;5113040;28;1111;-59
2023/03/19 03:01:49;;;;;;;;;;;;;;;-1.05;72.75;95715.31;5114410;27;1032;-59
2023/03/19 03:04:15;;;;;;;;;;;;;;;-1.24;73.03;95722.41;5113110;28;976;-59
2023/03/19 03:06:42;;;;;;;;;;;;;;;-1.30;74.19;95723.56;5114203;28;1004;-59
2023/03/19 03:09:09;;;;;;;;;;;;;;;-1.06;73.40;95726.75;5114200;28;1909;-59
2023/03/19 03:11:35;;;;;;;;;;;;;;;-0.96;72.24;95724.50;5114034;28;1099;-59
2023/03/19 03:14:01;;;;;;;;;;;;;;;-0.93;72.32;95724.38;5113860;28;969;-59
2023/03/19 03:16:27;;;;;;;;;;;;;;;-0.95;72.70;95725.34;5112889;28;988;-59
2023/03/19 03:18:53;;;;;;;;;;;;;;;-0.89;72.10;95735.53;5114070;28;1406;-59
2023/03/19 03:21:20;;;;;;;;;;;;;;;-0.97;71.97;95730.66;5114135;28;1035;-58
2023/03/19 03:23:47;;;;;;;;;;;;;;;-1.07;72.01;95732.06;5113804;28;1037;-59
2023/03/19 03:26:13;;;;;;;;;;;;;;;-1.42;72.90;95734.66;5113678;28;1127;-59
2023/03/19 03:28:40;;;;;;;;;;;;;;;-1.34;73.42;95740.38;5113713;28;1909;-59
2023/03/19 03:31:06;;;;;;;;;;;;;;;-1.38;72.86;95739.66;5113922;28;945;-59
2023/03/19 03:33:32;;;;;;;;;;;;;;;-1.49;73.27;95741.97;5113646;28;1099;-59
2023/03/19 03:35:58;;;;;;;;;;;;;;;-1.58;73.90;95731.91;5097762;28;1818;-59
2023/03/19 03:38:24;;;;;;;;;;;;;;;-1.39;73.67;95740.56;5093167;28;1037;-59
2023/03/19 03:40:51;;;;;;;;;;;;;;;-1.32;72.99;95743.78;5093303;28;977;-59
2023/03/19 03:43:18;;;;;;;;;;;;;;;-1.47;72.99;95742.72;5092863;28;956;-59
2023/03/19 03:45:44;;;;;;;;;;;;;;;-1.75;74.04;95737.94;5093215;28;1304;-60
2023/03/19 03:48:10;;;;;;;;;;;;;;;-1.71;74.94;95741.28;5093362;28;1914;-59
2023/03/19 03:50:37;;;;;;;;;;;;;;;-1.44;74.22;95745.22;5093182;28;1025;-59
2023/03/19 03:53:03;;;;;;;;;;;;;;;-1.25;73.76;95741.69;5093118;28;1640;-59
2023/03/19 03:55:29;;;;;;;;;;;;;;;-1.23;73.54;95743.31;5091954;28;1088;-59
2023/03/19 03:57:55;;;;;;;;;;;;;;;-1.42;72.52;95739.91;5093347;28;1013;-59
2023/03/19 04:00:21;;;;;;;;;;;;;;;-1.56;73.06;95740.53;5092034;28;985;-59
2023/03/19 04:02:47;;;;;;;;;;;;;;;-1.80;73.66;95747.81;5093444;28;965;-59
2023/03/19 04:05:14;;;;;;;;;;;;;;;-1.66;74.20;95752.41;5093030;28;1043;-59
2023/03/19 04:07:41;;;;;;;;;;;;;;;-1.53;73.57;95750.06;5092948;28;1914;-59
2023/03/19 04:10:09;;;;;;;;;;;;;;;-1.75;73.14;95750.22;5097682;28;1151;-59
2023/03/19 04:12:36;;;;;;;;;;;;;;;-2.12;74.47;95749.31;5113385;28;1269;-59
2023/03/19 04:15:03;;;;;;;;;;;;;;;-2.19;75.18;95751.34;5113696;28;997;-59
2023/03/19 04:17:29;;;;;;;;;;;;;;;-1.98;75.22;95752.13;5113203;28;1037;-59
2023/03/19 04:19:56;;;;;;;;;;;;;;;-1.89;74.20;95746.47;5113165;28;949;-59
2023/03/19 04:22:22;;;;;;;;;;;;;;;-2.02;74.18;95743.53;5113334;28;1054;-59
2023/03/19 04:24:48;;;;;;;;;;;;;;;-1.87;74.16;95734.13;5112388;28;992;-59
2023/03/19 04:27:14;;;;;;;;;;;;;;;-1.78;73.52;95736.31;5116225;28;1913;-59
2023/03/19 04:29:40;;;;;;;;;;;;;;;-2.07;74.24;95736.81;5117285;28;1001;-58
2023/03/19 04:32:06;;;;;;;;;;;;;;;-2.13;74.55;95735.31;5117050;28;1108;-59
2023/03/19 04:34:32;;;;;;;;;;;;;;;-1.89;74.74;95745.63;5114731;28;1722;-59
2023/03/19 04:36:58;;;;;;;;;;;;;;;-1.68;74.23;95744.59;5096299;28;1053;-58
2023/03/19 04:39:24;;;;;;;;;;;;;;;-1.44;73.27;95753.09;5095267;28;1088;-59
2023/03/19 04:41:50;;;;;;;;;;;;;;;-1.42;73.08;95753.84;5096701;28;1039;-59
2023/03/19 04:44:17;;;;;;;;;;;;;;;-1.60;72.92;95749.47;5096343;28;1135;-59
2023/03/19 04:46:44;;;;;;;;;;;;;;;-1.61;73.16;95753.03;5096546;28;1062;-59
2023/03/19 04:49:11;;;;;;;;;;;;;;;-1.69;73.34;95761.28;5096159;28;1906;-58
2023/03/19 04:51:37;;;;;;;;;;;;;;;-1.88;73.53;95763.03;5096375;28;1038;-58
2023/03/19 04:54:04;;;;;;;;;;;;;;;-1.82;74.04;95758.38;5101969;28;1328;-59
2023/03/19 04:56:31;;;;;;;;;;;;;;;-1.86;73.51;95753.31;5116896;27;976;-59
2023/03/19 04:58:57;;;;;;;;;;;;;;;-1.98;73.99;95759.97;5116892;28;1023;-59
2023/03/19 05:01:23;;;;;;;;;;;;;;;-1.99;74.98;95763.53;5116450;28;1092;-59
2023/03/19 05:03:49;;;;;;;;;;;;;;;-1.94;75.06;95765.94;5116676;28;997;-59
2023/03/19 05:06:16;;;;;;;;;;;;;;;-1.57;74.29;95765.94;5116491;28;1063;-59
2023/03/19 05:08:42;;;;;;;;;;;;;;;-1.07;73.04;95771.44;5116510;28;1898;-59
2023/03/19 05:11:08;;;;;;;;;;;;;;;-0.91;72.24;95763.63;5116308;27;1490;-59
2023/03/19 05:13:34;;;;;;;;;;;;;;;-0.92;71.73;95770.69;5116196;28;1041;-59
2023/03/19 05:16:00;;;;;;;;;;;;;;;-0.89;72.37;95778.41;5116353;28;975;-59
2023/03/19 05:18:28;;;;;;;;;;;;;;;-0.82;72.20;95771.91;5116087;28;1072;-58
2023/03/19 05:20:54;;;;;;;;;;;;;;;-0.62;71.66;95776.16;5116061;28;1107;-58
2023/03/19 05:23:20;;;;;;;;;;;;;;;-0.54;71.64;95775.78;5116220;28;975;-58
2023/03/19 05:25:46;;;;;;;;;;;;;;;-0.36;71.78;95776.63;5116210;28;1046;-58
2023/03/19 05:28:12;;;;;;;;;;;;;;;0.13;70.67;95774.03;5115795;28;1979;-59
2023/03/19 05:30:38;;;;;;;;;;;;;;;0.58;68.87;95775.06;5115981;28;1031;-59
2023/03/19 05:33:04;;;;;;;;;;;;;;;0.98;67.90;95767.53;5114260;28;1436;-59
2023/03/19 05:35:30;;;;;;;;;;;;;;;1.07;67.90;95762.72;5104802;28;1536;-59
2023/03/19 05:37:57;;;;;;;;;;;;;;;1.05;67.98;95772.50;5101386;28;1497;-60
2023/03/19 05:40:23;;;;;;;;;;;;;;;1.09;67.84;95772.22;5115888;28;980;-59
2023/03/19 05:42:49;;;;;;;;;;;;;;;1.48;66.74;95765.56;5115719;28;927;-58
2023/03/19 05:45:16;;;;;;;;;;;;;;;1.70;65.72;95774.81;5115339;27;1416;-55
2023/03/19 05:47:43;;;;;;;;;;;;;;;1.94;65.91;95764.59;5109397;28;1977;-60
2023/03/19 05:50:10;;;;;;;;;;;;;;;2.16;63.83;95761.47;5095239;28;1082;-57
2023/03/19 05:52:36;;;;;;;;;;;;;;;2.41;64.01;95770.50;5095399;28;1023;-57
2023/03/19 05:55:03;;;;;;;;;;;;;;;2.70;63.17;95772.16;5095089;28;1132;-59
2023/03/19 05:57:29;;;;;;;;;;;;;;;3.19;62.35;95777.84;5093814;28;1033;-60
2023/03/19 05:59:55;;;;;;;;;;;;;;;3.49;60.60;95775.81;5094949;28;1127;-58
2023/03/19 06:02:21;;;;;;;;;;;;;;;3.60;60.84;95772.44;5100074;28;1244;-62
2023/03/19 06:04:48;;;;;;;;;;;;;;;4.18;59.35;95774.72;5115217;28;1088;-61
2023/03/19 06:07:14;;;;;;;;;;;;;;;5.21;55.49;95777.94;5115271;28;1906;-60
2023/03/19 06:09:40;;;;;;;;;;;;;;;5.51;53.08;95784.59;5115340;28;1000;-59
2023/03/19 06:12:07;;;;;;;;;;;;;;;5.28;54.62;95769.44;5115289;28;965;-59
2023/03/19 06:14:33;;;;;;;;;;;;;;;5.40;54.02;95772.97;5115256;28;1350;-58
2023/03/19 06:16:59;;;;;;;;;;;;;;;5.44;52.56;95782.41;5115109;28;1055;-59
2023/03/19 06:19:26;;;;;;;;;;;;;;;5.56;53.39;95771.81;5115088;28;1098;-58
2023/03/19 06:21:52;;;;;;;;;;;;;;;5.51;54.08;95774.00;5115081;28;1024;-59
2023/03/19 06:24:18;;;;;;;;;;;;;;;5.66;53.88;95772.84;5114812;28;1052;-59
2023/03/19 06:26:44;;;;;;;;;;;;;;;5.88;52.31;95785.34;5114954;27;1071;-58
2023/03/19 06:29:10;;;;;;;;;;;;;;;6.17;53.26;95782.28;5114794;28;2013;-60
2023/03/19 06:31:38;;;;;;;;;;;;;;;6.54;51.60;95795.34;5113725;28;1020;-60
2023/03/19 06:34:04;;;;;;;;;;;;;;;6.80;50.50;95791.44;5114592;28;1053;-58
2023/03/19 06:36:31;;;;;;;;;;;;;;;6.88;51.44;95776.72;5114278;27;1589;-60
2023/03/19 06:38:57;;;;;;;;;;;;;;;6.89;50.98;95783.72;5114630;28;1111;-61
2023/03/19 06:41:24;;;;;;;;;;;;;;;7.12;50.91;95785.38;5113288;28;1530;-60
2023/03/19 06:43:50;;;;;;;;;;;;;;;7.05;50.29;95792.16;5114594;28;1713;-59
2023/03/19 06:46:16;;;;;;;;;;;;;;;7.24;51.06;95792.34;5114361;28;1092;-59
2023/03/19 06:48:42;;;;;;;;;;;;;;;7.74;49.92;95796.28;5113347;28;1929;-60
2023/03/19 06:51:09;;;;;;;;;;;;;;;8.01;48.62;95798.47;5114246;28;1060;-60
2023/03/19 06:53:35;;;;;;;;;;;;;;;7.69;47.57;95802.00;5114475;28;1048;-59
2023/03/19 06:56:01;;;;;;;;;;;;;;;7.59;47.56;95801.09;5114462;28;1059;-60
2023/03/19 06:58:27;;;;;;;;;;;;;;;8.13;47.76;95799.22;5114197;28;1019;-59
2023/03/19 07:00:54;;;;;;;;;;;;;;;8.21;47.74;95794.97;5114109;28;1111;-59
2023/03/19 07:03:20;;;;;;;;;;;;;;;8.52;46.78;95805.69;5114243;28;973;-59
2023/03/19 07:05:49;;;;;;;;;;;;;;;8.69;46.85;95811.34;5113905;28;1072;-59
2023/03/19 07:08:15;;;;;;;;;;;;;;;8.82;45.79;95805.78;5113789;28;1994;-59
2023/03/19 07:10:42;;;;;;;;;;;;;;;8.84;46.60;95807.38;5113349;28;1539;-59
2023/03/19 07:13:08;;;;;;;;;;;;;;;9.07;45.68;95810.66;5113074;28;1334;-60
2023/03/19 07:15:35;;;;;;;;;;;;;;;9.37;45.85;95803.56;5113547;28;1335;-59
2023/03/19 07:18:02;;;;;;;;;;;;;;;9.51;45.51;95813.84;5113849;28;1112;-58
2023/03/19 07:20:28;;;;;;;;;;;;;;;9.38;44.29;95813.28;5112357;28;1123;-59
2023/03/19 07:22:55;;;;;;;;;;;;;;;9.41;45.25;95810.34;5113788;28;980;-59
2023/03/19 07:25:21;;;;;;;;;;;;;;;9.65;43.82;95811.75;5113644;28;1015;-58
2023/03/19 07:27:48;;;;;;;;;;;;;;;10.00;43.38;95813.88;5113426;28;1909;-59
2023/03/19 07:30:15;;;;;;;;;;;;;;;10.35;43.70;95807.97;5113583;28;1084;-59
2023/03/19 07:32:41;;;;;;;;;;;;;;;10.35;42.77;95807.97;5113680;28;1006;-58
2023/03/19 07:35:09;;;;;;;;;;;;;;;10.49;43.24;95811.16;5112458;28;2257;-58
2023/03/19 07:37:35;;;;;;;;;;;;;;;10.78;42.78;95810.25;5112465;28;2823;-58
2023/03/19 07:40:02;;;;;;;;;;;;;;;11.23;41.42;95806.81;5113885;28;1043;-59
2023/03/19 07:42:28;;;;;;;;;;;;;;;10.86;42.00;95813.88;5113613;28;1001;-59
2023/03/19 07:44:55;;;;;;;;;;;;;;;10.80;40.99;95811.78;5113537;28;1051;-59
2023/03/19 07:47:21;;;;;;;;;;;;;;;10.37;42.35;95801.63;5112967;28;1997;-60
2023/03/19 07:49:48;;;;;;;;;;;;;;;10.85;41.75;95798.81;5111515;28;2563;-60
2023/03/19 07:52:14;;;;;;;;;;;;;;;11.36;40.81;95809.97;5113373;28;1530;-59
2023/03/19 07:54:40;;;;;;;;;;;;;;;11.23;40.82;95806.81;5113336;28;1096;-59
2023/03/19 07:57:06;;;;;;;;;;;;;;;11.03;40.53;95804.22;5113692;28;967;-59
2023/03/19 07:59:32;;;;;;;;;;;;;;;11.47;39.62;95809.75;5113536;28;949;-59
2023/03/19 08:01:58;;;;;;;;;;;;;;;11.64;40.04;95815.31;5117898;28;1059;-59
2023/03/19 08:04:24;;;;;;;;;;;;;;;12.32;39.05;95811.28;5117457;28;881;-58
2023/03/19 08:06:51;;;;;;;;;;;;;;;11.83;38.22;95819.69;5117508;28;1057;-58
2023/03/19 08:09:17;;;;;;;;;;;;;;;12.18;39.74;95816.19;5117349;28;1902;-58
2023/03/19 08:11:43;;;;;;;;;;;;;;;12.64;38.65;95814.19;5117447;28;1045;-58
2023/03/19 08:14:09;;;;;;;;;;;;;;;12.68;37.95;95814.69;5117656;28;1020;-58
2023/03/19 08:16:35;;;;;;;;;;;;;;;12.76;37.08;95812.06;5116950;28;1036;-58
2023/03/19 08:19:01;;;;;;;;;;;;;;;12.95;37.26;95813.69;5116816;28;1135;-58
2023/03/19 08:21:28;;;;;;;;;;;;;;;12.98;37.51;95810.69;5117403;28;968;-59
2023/03/19 08:23:55;;;;;;;;;;;;;;;12.83;36.85;95813.13;5117137;28;1053;-59
2023/03/19 08:26:23;;;;;;;;;;;;;;;13.09;36.46;95807.72;5104076;28;1645;-57
2023/03/19 08:28:49;;;;;;;;;;;;;;;13.23;36.16;95813.50;5110199;28;1905;-59
2023/03/19 08:31:15;;;;;;;;;;;;;;;13.28;36.33;95809.31;5115660;28;1567;-57
2023/03/19 08:33:41;;;;;;;;;;;;;;;13.98;34.65;95810.03;5115766;28;1393;-57
2023/03/19 08:36:09;;;;;;;;;;;;;;;13.89;35.48;95802.94;5114796;28;1335;-58
2023/03/19 08:38:35;;;;;;;;;;;;;;;13.65;35.65;95809.97;5115621;28;1613;-58
2023/03/19 08:41:03;;;;;;;;;;;;;;;13.56;35.00;95809.09;5115808;28;1309;-57
2023/03/19 08:43:30;;;;;;;;;;;;;;;13.92;35.53;95808.84;5115969;28;1319;-57
2023/03/19 08:45:56;;;;;;;;;;;;;;;14.33;34.06;95811.56;5114543;28;1540;-57
2023/03/19 08:48:22;;;;;;;;;;;;;;;14.21;34.02;95811.06;5115623;28;1910;-59
2023/03/19 08:50:55;;;;;;;;;;;;;;;14.83;32.63;95813.25;5115733;28;1616;-59
2023/03/19 08:53:22;;;;;;;;;;;;;;;14.61;33.53;95812.09;5115238;28;1323;-58
2023/03/19 08:55:52;;;;;;;;;;;;;;;14.30;33.67;95803.00;5116519;28;1123;-59
2023/03/19 08:58:18;;;;;;;;;;;;;;;14.19;34.62;95801.47;5116249;28;1053;-61
2023/03/19 09:00:45;;;;;;;;;;;;;;;14.89;34.27;95805.47;5116427;28;967;-59
2023/03/19 09:03:11;;;;;;;;;;;;;;;15.19;32.73;95793.94;5116429;28;1040;-58
2023/03/19 09:05:37;;;;;;;;;;;;;;;15.02;34.02;95793.16;5116531;28;1016;-59
2023/03/19 09:08:03;;;;;;;;;;;;;;;15.11;33.78;95787.75;5116247;28;1988;-57
2023/03/19 09:10:29;;;;;;;;;;;;;;;14.90;32.31;95799.91;5116196;28;1024;-56
2023/03/19 09:12:55;;;;;;;;;;;;;;;15.18;33.00;95794.13;5115210;28;1091;-57
2023/03/19 09:15:21;;;;;;;;;;;;;;;15.16;31.77;95794.28;5116006;28;1131;-57
2023/03/19 09:17:47;;;;;;;;;;;;;;;15.20;33.06;95792.94;5116199;27;1069;-59
2023/03/19 09:20:13;;;;;;;;;;;;;;;14.94;33.39;95778.88;5115924;28;1088;-58
2023/03/19 09:22:39;;;;;;;;;;;;;;;15.33;31.86;95778.06;5116060;28;1016;-58
2023/03/19 09:25:06;;;;;;;;;;;;;;;15.19;32.66;95775.06;5114657;28;1061;-58
2023/03/19 09:27:32;;;;;;;;;;;;;;;15.32;32.14;95774.53;5115974;28;1902;-58
2023/03/19 09:29:58;;;;;;;;;;;;;;;14.74;32.40;95768.50;5116149;28;948;-57
2023/03/19 09:32:24;;;;;;;;;;;;;;;15.02;33.02;95770.75;5115993;28;1016;-59
2023/03/19 09:34:50;;;;;;;;;;;;;;;15.56;32.11;95764.66;5110687;28;1535;-60
2023/03/19 09:37:16;;;;;;;;;;;;;;;15.37;31.79;95766.75;5095329;28;1087;-60
2023/03/19 09:39:43;;;;;;;;;;;;;;;15.34;32.26;95759.00;5095587;28;1043;-60
2023/03/19 09:42:28;;;;;;;;;;;;;;;15.79;31.71;95762.84;5095308;28;1025;-63
2023/03/19 09:44:54;;;;;;;;;;;;;;;16.07;31.24;95754.22;5095260;28;1108;-64
2023/03/19 09:47:25;;;;;;;;;;;;;;;15.93;30.29;95757.69;5095191;28;1926;-63
2023/03/19 09:49:53;;;;;;;;;;;;;;;15.38;30.86;95765.72;5099728;28;1112;-64
2023/03/19 09:52:19;;;;;;;;;;;;;;;15.77;31.95;95747.88;5115691;28;972;-64
2023/03/19 09:54:47;;;;;;;;;;;;;;;16.08;32.16;95744.28;5115226;28;1108;-63
2023/03/19 09:57:14;;;;;;;;;;;;;;;16.35;31.25;95745.56;5114126;28;1112;-59
2023/03/19 09:59:40;;;;;;;;;;;;;;;16.38;31.33;95740.63;5114283;28;969;-62
2023/03/19 10:02:21;;;;;;;;;;;;;;;16.26;30.86;95741.25;5115569;28;1050;-64
2023/03/19 10:04:53;;;;;;;;;;;;;;;16.22;31.27;95737.22;5115170;28;1300;-57
2023/03/19 10:07:19;;;;;;;;;;;;;;;16.34;31.67;95725.81;5115138;28;1971;-58
2023/03/19 10:10:01;;;;;;;;;;;;;;;16.43;30.73;95723.03;5115094;28;1037;-60
2023/03/19 10:12:27;;;;;;;;;;;;;;;16.71;31.23;95718.72;5114993;28;1159;-59
2023/03/19 10:14:53;;;;;;;;;;;;;;;16.61;30.21;95718.16;5115198;28;1074;-59
2023/03/19 10:17:23;;;;;;;;;;;;;;;16.74;31.72;95723.75;5115137;28;1301;-54
2023/03/19 10:19:57;;;;;;;;;;;;;;;16.76;31.15;95710.88;5114267;28;1313;-57
2023/03/19 10:22:27;;;;;;;;;;;;;;;17.09;29.79;95707.84;5113701;28;1525;-57
2023/03/19 10:24:55;;;;;;;;;;;;;;;17.14;29.39;95720.78;5113812;28;1589;-56
2023/03/19 10:27:22;;;;;;;;;;;;;;;16.50;29.24;95719.44;5113480;28;1950;-58
2023/03/19 10:29:48;;;;;;;;;;;;;;;16.26;29.30;95708.88;5112516;28;1910;-63
2023/03/19 10:32:19;;;;;;;;;;;;;;;16.32;31.07;95698.19;5112562;28;1501;-62
2023/03/19 10:34:49;;;;;;;;;;;;;;;16.54;30.01;95688.38;5109022;28;1935;-61
2023/03/19 10:37:35;;;;;;;;;;;;;;;16.89;31.03;95687.84;5113093;28;1422;-61
2023/03/19 10:40:02;;;;;;;;;;;;;;;17.37;29.88;95680.09;5111682;28;1350;-64
2023/03/19 10:42:37;;;;;;;;;;;;;;;17.47;30.07;95679.78;5112192;28;1350;-63
2023/03/19 10:45:22;;;;;;;;;;;;;;;17.46;30.10;95670.84;5112876;28;1462;-62
2023/03/19 10:47:48;;;;;;;;;;;;;;;17.13;29.89;95673.16;5110798;28;1902;-60
2023/03/19 10:50:35;;;;;;;;;;;;;;;17.02;29.82;95673.69;5112368;28;1618;-62
2023/03/19 10:53:13;;;;;;;;;;;;;;;17.12;30.96;95658.81;5114046;28;1129;-61
2023/03/19 10:55:59;;;;;;;;;;;;;;;17.18;31.28;95647.25;5114507;28;1039;-62
2023/03/19 10:58:27;;;;;;;;;;;;;;;17.36;31.26;95637.91;5114054;28;1137;-61
2023/03/19 11:01:04;;;;;;;;;;;;;;;17.51;31.18;95640.53;5113264;28;1027;-62
2023/03/19 11:03:32;;;;;;;;;;;;;;;17.69;30.57;95630.13;5114425;28;1280;-61
2023/03/19 11:06:03;;;;;;;;;;;;;;;17.62;29.87;95634.63;5111397;28;2051;-61
2023/03/19 11:08:33;;;;;;;;;;;;;;;17.17;29.64;95632.09;5098736;28;2011;-56
2023/03/19 11:10:59;;;;;;;;;;;;;;;17.56;29.97;95621.88;5112173;28;1047;-68
2023/03/19 11:13:25;;;;;;;;;;;;;;;17.39;29.69;95613.19;5093476;28;1037;-63
2023/03/19 11:15:52;;;;;;;;;;;;;;;17.78;31.60;95611.06;5092388;28;985;-64
2023/03/19 11:18:20;;;;;;;;;;;;;;;17.97;30.49;95598.78;5093721;28;1016;-62
2023/03/19 11:21:12;;;;;;;;;;;;;;;17.89;30.22;95594.31;5095696;28;1008;-61
2023/03/19 11:23:39;;;;;;;;;;;;;;;17.77;30.88;95585.88;5102117;28;1053;-59
2023/03/19 11:26:06;;;;;;;;;;;;;;;17.77;29.85;95588.56;5129952;27;989;-61
2023/03/19 11:28:35;;;;;;;;;;;;;;;18.04;29.92;95586.09;5113715;28;1886;-60
2023/03/19 11:31:10;;;;;;;;;;;;;;;17.82;29.36;95583.44;5113604;28;1108;-59
2023/03/19 11:33:37;;;;;;;;;;;;;;;17.49;29.46;95575.00;5113605;28;1096;-60
2023/03/19 11:36:03;;;;;;;;;;;;;;;17.60;30.40;95569.09;5112044;28;1619;-61
2023/03/19 11:38:36;;;;;;;;;;;;;;;17.83;29.79;95565.31;5112568;28;1088;-61
2023/03/19 11:41:15;;;;;;;;;;;;;;;17.61;29.39;95562.66;5113840;28;1043;-63
2023/03/19 11:43:47;;;;;;;;;;;;;;;17.90;29.51;95555.44;5113821;28;1222;-62
2023/03/19 11:46:18;;;;;;;;;;;;;;;17.99;30.00;95550.72;5112332;28;1001;-62
2023/03/19 11:48:47;;;;;;;;;;;;;;;17.63;27.87;95555.19;5112305;28;1905;-61
2023/03/19 11:51:35;;;;;;;;;;;;;;;17.61;29.98;95551.00;5112533;28;1055;-63
2023/03/19 11:54:04;;;;;;;;;;;;;;;17.85;30.48;95537.09;5111918;28;1129;-62
2023/03/19 11:56:34;;;;;;;;;;;;;;;18.05;30.83;95530.97;5113511;28;1698;-65
2023/03/19 11:59:07;;;;;;;;;;;;;;;17.88;27.70;95538.56;5112483;28;961;-62
2023/03/19 12:01:52;;;;;;;;;;;;;;;17.90;29.48;95531.09;5117182;28;2092;-59
2023/03/19 12:04:33;;;;;;;;;;;;;;;18.08;29.23;95531.41;5091755;28;1037;-64
2023/03/19 12:07:22;;;;;;;;;;;;;;;18.37;29.85;95517.84;5099828;28;977;-61
2023/03/19 12:09:51;;;;;;;;;;;;;;;18.08;28.50;95520.59;5113612;28;928;-63
2023/03/19 12:12:17;;;;;;;;;;;;;;;17.92;28.28;95518.19;5113319;28;1099;-63
2023/03/19 12:14:55;;;;;;;;;;;;;;;17.63;28.20;95516.50;5113589;28;1018;-63
2023/03/19 12:17:48;;;;;;;;;;;;;;;17.69;29.49;95503.03;5105022;28;1064;-64
2023/03/19 12:20:14;;;;;;;;;;;;;;;17.69;28.43;95503.03;5090059;28;1139;-62
2023/03/19 12:22:40;;;;;;;;;;;;;;;17.68;30.56;95498.66;5094979;28;2105;-63
2023/03/19 12:25:26;;;;;;;;;;;;;;;18.07;29.65;95497.25;5095779;28;1056;-62
2023/03/19 12:28:05;;;;;;;;;;;;;;;18.23;29.71;95503.38;5093436;28;1913;-63
2023/03/19 12:30:55;;;;;;;;;;;;;;;18.10;28.47;95498.75;5113239;28;904;-60
2023/03/19 12:33:21;;;;;;;;;;;;;;;17.98;28.80;95495.75;5108909;28;1365;-62
2023/03/19 12:35:49;;;;;;;;;;;;;;;17.94;28.78;95489.06;5109179;28;1648;-62
2023/03/19 12:38:18;;;;;;;;;;;;;;;18.08;28.92;95485.41;5109373;28;1517;-62
2023/03/19 12:40:51;;;;;;;;;;;;;;;17.96;28.87;95481.59;5112167;28;1388;-62
2023/03/19 12:43:20;;;;;;;;;;;;;;;18.05;29.30;95483.09;5109939;28;1584;-63
2023/03/19 12:45:49;;;;;;;;;;;;;;;18.00;28.27;95474.75;5110584;28;1328;-62
2023/03/19 12:48:15;;;;;;;;;;;;;;;18.04;27.91;95475.19;5128043;27;1917;-62
2023/03/19 12:50:45;;;;;;;;;;;;;;;18.06;28.46;95465.84;5115814;28;1598;-62
2023/03/19 12:53:23;;;;;;;;;;;;;;;18.16;28.99;95456.53;5115657;28;1405;-63
2023/03/19 12:55:54;;;;;;;;;;;;;;;18.14;28.79;95457.56;5115813;28;1583;-63
2023/03/19 12:58:30;;;;;;;;;;;;;;;18.20;28.74;95453.22;5115491;28;1636;-62
2023/03/19 13:01:01;;;;;;;;;;;;;;;18.05;27.70;95447.09;5114377;28;1536;-63
2023/03/19 13:03:27;;;;;;;;;;;;;;;17.92;28.87;95445.16;5115243;28;1564;-62